sensor_id;sensor_type;location;lat;lon;timestamp;P1;durP1;ratioP1;P2;durP2;ratioP2
13349;SDS011;6744;53.190;6.576;2024-01-30T00:01:12;11.13;;;10.13;;
13349;SDS011;6744;53.190;6.576;2024-01-30T00:03:37;10.97;;;9.97;;
13349;SDS011;6744;53.190;6.576;2024-01-30T00:06:03;11.53;;;10.43;;
13349;SDS011;6744;53.190;6.576;2024-01-30T00:08:28;11.10;;;10.00;;
13349;SDS011;6744;53.190;6.576;2024-01-30T00:10:54;11.90;;;10.80;;
13349;SDS011;6744;53.190;6.576;2024-01-30T00:13:20;11.07;;;10.07;;
13349;SDS011;6744;53.190;6.576;2024-01-30T00:15:45;11.63;;;10.63;;
13349;SDS011;6744;53.190;6.576;2024-01-30T00:18:11;11.10;;;10.10;;
13349;SDS011;6744;53.190;6.576;2024-01-30T00:20:36;11.60;;;10.60;;
13349;SDS011;6744;53.190;6.576;2024-01-30T00:23:02;12.17;;;11.07;;
13349;SDS011;6744;53.190;6.576;2024-01-30T00:25:27;11.97;;;10.87;;
13349;SDS011;6744;53.190;6.576;2024-01-30T00:27:53;12.57;;;11.37;;
13349;SDS011;6744;53.190;6.576;2024-01-30T00:30:18;12.60;;;11.33;;
13349;SDS011;6744;53.190;6.576;2024-01-30T00:32:44;13.40;;;12.13;;
13349;SDS011;6744;53.190;6.576;2024-01-30T00:35:10;14.23;;;12.83;;
13349;SDS011;6744;53.190;6.576;2024-01-30T00:37:36;15.73;;;14.13;;
13349;SDS011;6744;53.190;6.576;2024-01-30T00:40:01;13.77;;;12.47;;
13349;SDS011;6744;53.190;6.576;2024-01-30T00:42:27;13.70;;;12.43;;
13349;SDS011;6744;53.190;6.576;2024-01-30T00:44:52;13.00;;;11.90;;
13349;SDS011;6744;53.190;6.576;2024-01-30T00:47:18;13.53;;;12.23;;
13349;SDS011;6744;53.190;6.576;2024-01-30T00:49:43;15.50;;;13.10;;
13349;SDS011;6744;53.190;6.576;2024-01-30T00:52:09;12.97;;;11.87;;
13349;SDS011;6744;53.190;6.576;2024-01-30T00:54:34;13.60;;;12.37;;
13349;SDS011;6744;53.190;6.576;2024-01-30T00:56:59;13.37;;;12.23;;
13349;SDS011;6744;53.190;6.576;2024-01-30T00:59:25;15.87;;;14.27;;
13349;SDS011;6744;53.190;6.576;2024-01-30T01:01:50;16.13;;;14.60;;
13349;SDS011;6744;53.190;6.576;2024-01-30T01:04:16;17.60;;;15.90;;
13349;SDS011;6744;53.190;6.576;2024-01-30T01:06:42;13.33;;;12.13;;
13349;SDS011;6744;53.190;6.576;2024-01-30T01:09:10;13.70;;;12.40;;
13349;SDS011;6744;53.190;6.576;2024-01-30T01:11:36;13.00;;;11.90;;
13349;SDS011;6744;53.190;6.576;2024-01-30T01:14:03;14.53;;;13.20;;
13349;SDS011;6744;53.190;6.576;2024-01-30T01:16:28;15.73;;;14.33;;
13349;SDS011;6744;53.190;6.576;2024-01-30T01:18:54;13.20;;;12.00;;
13349;SDS011;6744;53.190;6.576;2024-01-30T01:21:19;13.93;;;12.67;;
13349;SDS011;6744;53.190;6.576;2024-01-30T01:23:45;13.23;;;11.90;;
13349;SDS011;6744;53.190;6.576;2024-01-30T01:26:10;14.67;;;13.30;;
13349;SDS011;6744;53.190;6.576;2024-01-30T01:28:35;14.83;;;13.53;;
13349;SDS011;6744;53.190;6.576;2024-01-30T01:31:01;14.20;;;12.80;;
13349;SDS011;6744;53.190;6.576;2024-01-30T01:33:33;15.50;;;14.03;;
13349;SDS011;6744;53.190;6.576;2024-01-30T01:35:59;15.70;;;14.30;;
13349;SDS011;6744;53.190;6.576;2024-01-30T01:38:27;16.00;;;14.60;;
13349;SDS011;6744;53.190;6.576;2024-01-30T01:40:53;15.57;;;14.07;;
13349;SDS011;6744;53.190;6.576;2024-01-30T01:43:18;14.13;;;12.87;;
13349;SDS011;6744;53.190;6.576;2024-01-30T01:45:44;14.40;;;13.10;;
13349;SDS011;6744;53.190;6.576;2024-01-30T01:48:10;14.67;;;13.37;;
13349;SDS011;6744;53.190;6.576;2024-01-30T01:50:36;16.27;;;14.77;;
13349;SDS011;6744;53.190;6.576;2024-01-30T01:53:02;15.73;;;14.03;;
13349;SDS011;6744;53.190;6.576;2024-01-30T01:55:28;15.60;;;14.17;;
13349;SDS011;6744;53.190;6.576;2024-01-30T01:57:54;19.30;;;17.60;;
13349;SDS011;6744;53.190;6.576;2024-01-30T02:00:20;15.03;;;13.73;;
13349;SDS011;6744;53.190;6.576;2024-01-30T02:02:46;17.00;;;15.40;;
13349;SDS011;6744;53.190;6.576;2024-01-30T02:05:12;14.30;;;13.00;;
13349;SDS011;6744;53.190;6.576;2024-01-30T02:07:37;16.47;;;14.87;;
13349;SDS011;6744;53.190;6.576;2024-01-30T02:10:03;16.63;;;15.13;;
13349;SDS011;6744;53.190;6.576;2024-01-30T02:12:29;14.47;;;13.13;;
13349;SDS011;6744;53.190;6.576;2024-01-30T02:14:55;18.60;;;16.80;;
13349;SDS011;6744;53.190;6.576;2024-01-30T02:17:20;15.93;;;14.43;;
13349;SDS011;6744;53.190;6.576;2024-01-30T02:19:48;16.00;;;14.60;;
13349;SDS011;6744;53.190;6.576;2024-01-30T02:22:13;15.37;;;13.97;;
13349;SDS011;6744;53.190;6.576;2024-01-30T02:24:39;16.43;;;14.97;;
13349;SDS011;6744;53.190;6.576;2024-01-30T02:27:05;15.17;;;13.63;;
13349;SDS011;6744;53.190;6.576;2024-01-30T02:29:30;18.60;;;16.90;;
13349;SDS011;6744;53.190;6.576;2024-01-30T02:31:56;16.07;;;14.47;;
13349;SDS011;6744;53.190;6.576;2024-01-30T02:34:21;16.40;;;14.80;;
13349;SDS011;6744;53.190;6.576;2024-01-30T02:36:47;13.87;;;12.67;;
13349;SDS011;6744;53.190;6.576;2024-01-30T02:39:12;15.47;;;13.93;;
13349;SDS011;6744;53.190;6.576;2024-01-30T02:41:37;15.30;;;13.80;;
13349;SDS011;6744;53.190;6.576;2024-01-30T02:44:03;17.70;;;16.10;;
13349;SDS011;6744;53.190;6.576;2024-01-30T02:46:29;16.87;;;15.37;;
13349;SDS011;6744;53.190;6.576;2024-01-30T02:48:54;14.67;;;13.37;;
13349;SDS011;6744;53.190;6.576;2024-01-30T02:51:20;13.93;;;12.73;;
13349;SDS011;6744;53.190;6.576;2024-01-30T02:53:45;13.43;;;12.27;;
13349;SDS011;6744;53.190;6.576;2024-01-30T02:56:11;18.40;;;16.60;;
13349;SDS011;6744;53.190;6.576;2024-01-30T02:58:38;17.03;;;15.50;;
13349;SDS011;6744;53.190;6.576;2024-01-30T03:01:04;14.50;;;13.20;;
13349;SDS011;6744;53.190;6.576;2024-01-30T03:03:30;15.60;;;14.30;;
13349;SDS011;6744;53.190;6.576;2024-01-30T03:05:56;16.47;;;15.03;;
13349;SDS011;6744;53.190;6.576;2024-01-30T03:08:21;13.87;;;12.63;;
13349;SDS011;6744;53.190;6.576;2024-01-30T03:10:46;15.53;;;14.03;;
13349;SDS011;6744;53.190;6.576;2024-01-30T03:13:12;14.03;;;12.67;;
13349;SDS011;6744;53.190;6.576;2024-01-30T03:15:37;12.77;;;11.60;;
13349;SDS011;6744;53.190;6.576;2024-01-30T03:18:03;16.60;;;14.83;;
13349;SDS011;6744;53.190;6.576;2024-01-30T03:20:29;14.63;;;13.23;;
13349;SDS011;6744;53.190;6.576;2024-01-30T03:22:55;14.37;;;13.07;;
13349;SDS011;6744;53.190;6.576;2024-01-30T03:25:21;13.80;;;12.57;;
13349;SDS011;6744;53.190;6.576;2024-01-30T03:27:46;13.17;;;11.97;;
13349;SDS011;6744;53.190;6.576;2024-01-30T03:30:11;12.97;;;11.87;;
13349;SDS011;6744;53.190;6.576;2024-01-30T03:32:37;14.20;;;12.87;;
13349;SDS011;6744;53.190;6.576;2024-01-30T03:35:02;15.90;;;14.40;;
13349;SDS011;6744;53.190;6.576;2024-01-30T03:37:29;15.83;;;14.33;;
13349;SDS011;6744;53.190;6.576;2024-01-30T03:39:54;12.67;;;11.67;;
13349;SDS011;6744;53.190;6.576;2024-01-30T03:42:20;15.70;;;14.20;;
13349;SDS011;6744;53.190;6.576;2024-01-30T03:44:46;17.53;;;15.73;;
13349;SDS011;6744;53.190;6.576;2024-01-30T03:47:11;13.77;;;12.57;;
13349;SDS011;6744;53.190;6.576;2024-01-30T03:49:37;16.50;;;14.87;;
13349;SDS011;6744;53.190;6.576;2024-01-30T03:52:02;13.60;;;12.40;;
13349;SDS011;6744;53.190;6.576;2024-01-30T03:54:28;17.40;;;15.80;;
13349;SDS011;6744;53.190;6.576;2024-01-30T03:56:53;13.60;;;12.30;;
13349;SDS011;6744;53.190;6.576;2024-01-30T03:59:19;15.37;;;13.77;;
13349;SDS011;6744;53.190;6.576;2024-01-30T04:01:49;16.20;;;14.53;;
13349;SDS011;6744;53.190;6.576;2024-01-30T04:04:16;13.87;;;12.57;;
13349;SDS011;6744;53.190;6.576;2024-01-30T04:06:42;15.60;;;14.13;;
13349;SDS011;6744;53.190;6.576;2024-01-30T04:09:07;16.57;;;14.97;;
13349;SDS011;6744;53.190;6.576;2024-01-30T04:11:33;13.83;;;12.53;;
13349;SDS011;6744;53.190;6.576;2024-01-30T04:13:58;13.50;;;12.30;;
13349;SDS011;6744;53.190;6.576;2024-01-30T04:16:24;13.30;;;12.10;;
13349;SDS011;6744;53.190;6.576;2024-01-30T04:18:50;14.60;;;13.37;;
13349;SDS011;6744;53.190;6.576;2024-01-30T04:21:16;15.83;;;14.27;;
13349;SDS011;6744;53.190;6.576;2024-01-30T04:23:41;14.67;;;13.27;;
13349;SDS011;6744;53.190;6.576;2024-01-30T04:26:07;13.57;;;12.37;;
13349;SDS011;6744;53.190;6.576;2024-01-30T04:28:32;12.47;;;11.23;;
13349;SDS011;6744;53.190;6.576;2024-01-30T04:30:58;12.77;;;11.57;;
13349;SDS011;6744;53.190;6.576;2024-01-30T04:33:23;12.87;;;11.67;;
13349;SDS011;6744;53.190;6.576;2024-01-30T04:35:49;11.73;;;10.73;;
13349;SDS011;6744;53.190;6.576;2024-01-30T04:38:14;11.93;;;10.83;;
13349;SDS011;6744;53.190;6.576;2024-01-30T04:40:40;12.03;;;10.93;;
13349;SDS011;6744;53.190;6.576;2024-01-30T04:43:05;14.13;;;12.80;;
13349;SDS011;6744;53.190;6.576;2024-01-30T04:45:31;12.90;;;11.77;;
13349;SDS011;6744;53.190;6.576;2024-01-30T04:47:56;12.63;;;11.33;;
13349;SDS011;6744;53.190;6.576;2024-01-30T04:50:22;12.43;;;11.23;;
13349;SDS011;6744;53.190;6.576;2024-01-30T04:52:48;13.07;;;11.77;;
13349;SDS011;6744;53.190;6.576;2024-01-30T04:55:14;12.13;;;11.00;;
13349;SDS011;6744;53.190;6.576;2024-01-30T04:57:39;12.83;;;11.73;;
13349;SDS011;6744;53.190;6.576;2024-01-30T05:00:05;12.63;;;11.33;;
13349;SDS011;6744;53.190;6.576;2024-01-30T05:02:31;12.30;;;11.20;;
13349;SDS011;6744;53.190;6.576;2024-01-30T05:04:56;11.70;;;10.50;;
13349;SDS011;6744;53.190;6.576;2024-01-30T05:07:24;12.87;;;11.63;;
13349;SDS011;6744;53.190;6.576;2024-01-30T05:09:50;12.33;;;11.23;;
13349;SDS011;6744;53.190;6.576;2024-01-30T05:12:15;12.93;;;11.40;;
13349;SDS011;6744;53.190;6.576;2024-01-30T05:14:41;10.97;;;10.07;;
13349;SDS011;6744;53.190;6.576;2024-01-30T05:17:06;11.20;;;10.10;;
13349;SDS011;6744;53.190;6.576;2024-01-30T05:19:33;10.83;;;9.73;;
13349;SDS011;6744;53.190;6.576;2024-01-30T05:21:58;11.07;;;10.07;;
13349;SDS011;6744;53.190;6.576;2024-01-30T05:24:24;12.20;;;11.03;;
13349;SDS011;6744;53.190;6.576;2024-01-30T05:26:49;11.83;;;10.73;;
13349;SDS011;6744;53.190;6.576;2024-01-30T05:29:16;11.33;;;10.33;;
13349;SDS011;6744;53.190;6.576;2024-01-30T05:31:42;10.13;;;9.13;;
13349;SDS011;6744;53.190;6.576;2024-01-30T05:34:07;11.80;;;10.80;;
13349;SDS011;6744;53.190;6.576;2024-01-30T05:36:34;11.90;;;10.83;;
13349;SDS011;6744;53.190;6.576;2024-01-30T05:38:59;12.00;;;10.90;;
13349;SDS011;6744;53.190;6.576;2024-01-30T05:41:25;10.53;;;9.53;;
13349;SDS011;6744;53.190;6.576;2024-01-30T05:43:53;10.40;;;9.40;;
13349;SDS011;6744;53.190;6.576;2024-01-30T05:46:18;11.43;;;10.43;;
13349;SDS011;6744;53.190;6.576;2024-01-30T05:48:44;12.47;;;11.27;;
13349;SDS011;6744;53.190;6.576;2024-01-30T05:51:09;11.33;;;10.27;;
13349;SDS011;6744;53.190;6.576;2024-01-30T05:53:35;11.33;;;10.23;;
13349;SDS011;6744;53.190;6.576;2024-01-30T05:56:03;12.47;;;11.27;;
13349;SDS011;6744;53.190;6.576;2024-01-30T05:58:29;12.17;;;11.03;;
13349;SDS011;6744;53.190;6.576;2024-01-30T06:00:56;10.90;;;9.83;;
13349;SDS011;6744;53.190;6.576;2024-01-30T06:03:22;11.23;;;10.10;;
13349;SDS011;6744;53.190;6.576;2024-01-30T06:05:48;10.90;;;9.90;;
13349;SDS011;6744;53.190;6.576;2024-01-30T06:08:13;10.27;;;9.37;;
13349;SDS011;6744;53.190;6.576;2024-01-30T06:10:38;10.37;;;9.43;;
13349;SDS011;6744;53.190;6.576;2024-01-30T06:13:04;9.87;;;8.97;;
13349;SDS011;6744;53.190;6.576;2024-01-30T06:15:29;10.17;;;9.27;;
13349;SDS011;6744;53.190;6.576;2024-01-30T06:17:55;11.30;;;10.20;;
13349;SDS011;6744;53.190;6.576;2024-01-30T06:20:20;10.27;;;9.33;;
13349;SDS011;6744;53.190;6.576;2024-01-30T06:22:46;11.10;;;10.00;;
13349;SDS011;6744;53.190;6.576;2024-01-30T06:25:11;10.00;;;9.10;;
13349;SDS011;6744;53.190;6.576;2024-01-30T06:27:37;11.53;;;10.40;;
13349;SDS011;6744;53.190;6.576;2024-01-30T06:30:03;11.03;;;9.87;;
13349;SDS011;6744;53.190;6.576;2024-01-30T06:32:29;11.37;;;10.27;;
13349;SDS011;6744;53.190;6.576;2024-01-30T06:34:59;11.13;;;10.03;;
13349;SDS011;6744;53.190;6.576;2024-01-30T06:37:25;9.90;;;8.90;;
13349;SDS011;6744;53.190;6.576;2024-01-30T06:39:50;9.63;;;8.83;;
13349;SDS011;6744;53.190;6.576;2024-01-30T06:42:17;9.80;;;8.90;;
13349;SDS011;6744;53.190;6.576;2024-01-30T06:44:42;10.37;;;9.37;;
13349;SDS011;6744;53.190;6.576;2024-01-30T06:47:08;10.77;;;9.67;;
13349;SDS011;6744;53.190;6.576;2024-01-30T06:49:33;10.70;;;9.57;;
13349;SDS011;6744;53.190;6.576;2024-01-30T06:51:59;10.17;;;9.20;;
13349;SDS011;6744;53.190;6.576;2024-01-30T06:54:25;9.40;;;8.47;;
13349;SDS011;6744;53.190;6.576;2024-01-30T06:56:50;10.23;;;9.23;;
13349;SDS011;6744;53.190;6.576;2024-01-30T06:59:16;9.83;;;8.83;;
13349;SDS011;6744;53.190;6.576;2024-01-30T07:01:41;10.10;;;9.10;;
13349;SDS011;6744;53.190;6.576;2024-01-30T07:04:07;10.50;;;9.53;;
13349;SDS011;6744;53.190;6.576;2024-01-30T07:06:32;9.30;;;8.30;;
13349;SDS011;6744;53.190;6.576;2024-01-30T07:08:57;9.83;;;8.77;;
13349;SDS011;6744;53.190;6.576;2024-01-30T07:11:23;10.77;;;9.67;;
13349;SDS011;6744;53.190;6.576;2024-01-30T07:13:50;10.47;;;9.47;;
13349;SDS011;6744;53.190;6.576;2024-01-30T07:16:15;10.37;;;9.47;;
13349;SDS011;6744;53.190;6.576;2024-01-30T07:18:41;9.53;;;8.63;;
13349;SDS011;6744;53.190;6.576;2024-01-30T07:21:06;10.03;;;8.90;;
13349;SDS011;6744;53.190;6.576;2024-01-30T07:23:32;9.60;;;8.73;;
13349;SDS011;6744;53.190;6.576;2024-01-30T07:25:59;9.20;;;8.40;;
13349;SDS011;6744;53.190;6.576;2024-01-30T07:28:24;10.30;;;9.40;;
13349;SDS011;6744;53.190;6.576;2024-01-30T07:30:50;10.97;;;9.80;;
13349;SDS011;6744;53.190;6.576;2024-01-30T07:33:15;9.37;;;8.57;;
13349;SDS011;6744;53.190;6.576;2024-01-30T07:35:41;9.03;;;8.20;;
13349;SDS011;6744;53.190;6.576;2024-01-30T07:38:06;11.50;;;10.40;;
13349;SDS011;6744;53.190;6.576;2024-01-30T07:40:32;11.40;;;10.30;;
13349;SDS011;6744;53.190;6.576;2024-01-30T07:42:58;9.90;;;8.90;;
13349;SDS011;6744;53.190;6.576;2024-01-30T07:45:23;11.27;;;10.17;;
13349;SDS011;6744;53.190;6.576;2024-01-30T07:47:50;10.80;;;9.70;;
13349;SDS011;6744;53.190;6.576;2024-01-30T07:50:15;9.93;;;9.03;;
13349;SDS011;6744;53.190;6.576;2024-01-30T07:52:41;10.50;;;9.30;;
13349;SDS011;6744;53.190;6.576;2024-01-30T07:55:07;10.30;;;9.23;;
13349;SDS011;6744;53.190;6.576;2024-01-30T07:57:33;10.63;;;9.63;;
13349;SDS011;6744;53.190;6.576;2024-01-30T07:59:59;10.63;;;9.63;;
13349;SDS011;6744;53.190;6.576;2024-01-30T08:02:25;9.80;;;8.90;;
13349;SDS011;6744;53.190;6.576;2024-01-30T08:04:51;10.33;;;9.33;;
13349;SDS011;6744;53.190;6.576;2024-01-30T08:07:16;9.63;;;8.70;;
13349;SDS011;6744;53.190;6.576;2024-01-30T08:09:43;10.10;;;9.13;;
13349;SDS011;6744;53.190;6.576;2024-01-30T08:12:09;10.63;;;9.57;;
13349;SDS011;6744;53.190;6.576;2024-01-30T08:14:34;8.70;;;7.90;;
13349;SDS011;6744;53.190;6.576;2024-01-30T08:16:59;10.83;;;9.53;;
13349;SDS011;6744;53.190;6.576;2024-01-30T08:19:25;9.43;;;8.53;;
13349;SDS011;6744;53.190;6.576;2024-01-30T08:21:50;9.50;;;8.60;;
13349;SDS011;6744;53.190;6.576;2024-01-30T08:24:16;10.40;;;9.40;;
13349;SDS011;6744;53.190;6.576;2024-01-30T08:26:41;9.57;;;8.67;;
13349;SDS011;6744;53.190;6.576;2024-01-30T08:29:07;10.20;;;9.20;;
13349;SDS011;6744;53.190;6.576;2024-01-30T08:31:32;9.37;;;8.57;;
13349;SDS011;6744;53.190;6.576;2024-01-30T08:33:57;9.50;;;8.50;;
13349;SDS011;6744;53.190;6.576;2024-01-30T08:36:23;8.80;;;8.00;;
13349;SDS011;6744;53.190;6.576;2024-01-30T08:38:50;9.10;;;8.20;;
13349;SDS011;6744;53.190;6.576;2024-01-30T08:41:16;9.30;;;8.27;;
13349;SDS011;6744;53.190;6.576;2024-01-30T08:43:41;9.17;;;8.33;;
13349;SDS011;6744;53.190;6.576;2024-01-30T08:46:07;7.97;;;7.27;;
13349;SDS011;6744;53.190;6.576;2024-01-30T08:48:32;8.00;;;7.30;;
13349;SDS011;6744;53.190;6.576;2024-01-30T08:50:58;9.00;;;8.20;;
13349;SDS011;6744;53.190;6.576;2024-01-30T08:53:23;9.00;;;7.83;;
13349;SDS011;6744;53.190;6.576;2024-01-30T08:55:49;9.33;;;8.53;;
13349;SDS011;6744;53.190;6.576;2024-01-30T08:58:15;8.43;;;7.60;;
13349;SDS011;6744;53.190;6.576;2024-01-30T09:00:43;8.97;;;8.07;;
13349;SDS011;6744;53.190;6.576;2024-01-30T09:03:08;8.40;;;7.60;;
13349;SDS011;6744;53.190;6.576;2024-01-30T09:05:34;7.90;;;7.20;;
13349;SDS011;6744;53.190;6.576;2024-01-30T09:07:59;8.20;;;7.40;;
13349;SDS011;6744;53.190;6.576;2024-01-30T09:10:24;8.07;;;7.27;;
13349;SDS011;6744;53.190;6.576;2024-01-30T09:12:50;9.77;;;8.40;;
13349;SDS011;6744;53.190;6.576;2024-01-30T09:15:16;8.70;;;7.90;;
13349;SDS011;6744;53.190;6.576;2024-01-30T09:17:41;7.60;;;6.87;;
13349;SDS011;6744;53.190;6.576;2024-01-30T09:20:07;8.93;;;8.03;;
13349;SDS011;6744;53.190;6.576;2024-01-30T09:22:34;9.07;;;8.17;;
13349;SDS011;6744;53.190;6.576;2024-01-30T09:24:59;9.70;;;8.20;;
13349;SDS011;6744;53.190;6.576;2024-01-30T09:27:25;9.07;;;7.40;;
13349;SDS011;6744;53.190;6.576;2024-01-30T09:29:50;9.50;;;8.20;;
13349;SDS011;6744;53.190;6.576;2024-01-30T09:32:15;11.53;;;9.13;;
13349;SDS011;6744;53.190;6.576;2024-01-30T09:34:42;8.50;;;7.70;;
13349;SDS011;6744;53.190;6.576;2024-01-30T09:37:08;9.20;;;8.30;;
13349;SDS011;6744;53.190;6.576;2024-01-30T09:39:33;9.13;;;8.30;;
13349;SDS011;6744;53.190;6.576;2024-01-30T09:42:05;7.93;;;7.13;;
13349;SDS011;6744;53.190;6.576;2024-01-30T09:44:51;7.90;;;7.20;;
13349;SDS011;6744;53.190;6.576;2024-01-30T09:47:18;8.30;;;7.37;;
13349;SDS011;6744;53.190;6.576;2024-01-30T09:49:44;8.80;;;7.73;;
13349;SDS011;6744;53.190;6.576;2024-01-30T09:52:10;8.40;;;7.60;;
13349;SDS011;6744;53.190;6.576;2024-01-30T09:54:36;7.73;;;7.03;;
13349;SDS011;6744;53.190;6.576;2024-01-30T09:57:01;8.80;;;7.87;;
13349;SDS011;6744;53.190;6.576;2024-01-30T09:59:27;9.67;;;8.03;;
13349;SDS011;6744;53.190;6.576;2024-01-30T10:01:52;8.83;;;7.20;;
13349;SDS011;6744;53.190;6.576;2024-01-30T10:04:17;10.03;;;8.27;;
13349;SDS011;6744;53.190;6.576;2024-01-30T10:06:43;8.80;;;7.90;;
13349;SDS011;6744;53.190;6.576;2024-01-30T10:09:08;8.63;;;7.73;;
13349;SDS011;6744;53.190;6.576;2024-01-30T10:11:38;9.20;;;7.80;;
13349;SDS011;6744;53.190;6.576;2024-01-30T10:14:03;8.70;;;7.90;;
13349;SDS011;6744;53.190;6.576;2024-01-30T10:16:29;7.23;;;6.50;;
13349;SDS011;6744;53.190;6.576;2024-01-30T10:18:54;7.90;;;7.13;;
13349;SDS011;6744;53.190;6.576;2024-01-30T10:21:20;8.30;;;7.40;;
13349;SDS011;6744;53.190;6.576;2024-01-30T10:23:46;9.40;;;8.40;;
13349;SDS011;6744;53.190;6.576;2024-01-30T10:26:11;9.67;;;7.30;;
13349;SDS011;6744;53.190;6.576;2024-01-30T10:28:37;8.13;;;7.33;;
13349;SDS011;6744;53.190;6.576;2024-01-30T10:31:02;7.20;;;6.50;;
13349;SDS011;6744;53.190;6.576;2024-01-30T10:33:30;8.07;;;7.27;;
13349;SDS011;6744;53.190;6.576;2024-01-30T10:36:03;8.40;;;7.30;;
13349;SDS011;6744;53.190;6.576;2024-01-30T10:38:29;8.17;;;7.37;;
13349;SDS011;6744;53.190;6.576;2024-01-30T10:41:00;9.23;;;7.37;;
13349;SDS011;6744;53.190;6.576;2024-01-30T10:43:35;9.53;;;7.70;;
13349;SDS011;6744;53.190;6.576;2024-01-30T10:46:11;8.60;;;7.10;;
13349;SDS011;6744;53.190;6.576;2024-01-30T10:48:44;7.90;;;7.20;;
13349;SDS011;6744;53.190;6.576;2024-01-30T10:51:14;7.97;;;7.13;;
13349;SDS011;6744;53.190;6.576;2024-01-30T10:53:39;9.50;;;7.27;;
13349;SDS011;6744;53.190;6.576;2024-01-30T10:56:05;9.27;;;7.83;;
13349;SDS011;6744;53.190;6.576;2024-01-30T10:58:31;8.37;;;6.87;;
13349;SDS011;6744;53.190;6.576;2024-01-30T11:00:56;9.47;;;7.10;;
13349;SDS011;6744;53.190;6.576;2024-01-30T11:03:22;8.30;;;7.23;;
13349;SDS011;6744;53.190;6.576;2024-01-30T11:05:51;8.17;;;7.37;;
13349;SDS011;6744;53.190;6.576;2024-01-30T11:08:26;8.30;;;7.50;;
13349;SDS011;6744;53.190;6.576;2024-01-30T11:10:58;8.40;;;7.63;;
13349;SDS011;6744;53.190;6.576;2024-01-30T11:13:30;8.70;;;7.70;;
13349;SDS011;6744;53.190;6.576;2024-01-30T11:15:59;10.27;;;8.23;;
13349;SDS011;6744;53.190;6.576;2024-01-30T11:18:29;8.40;;;7.60;;
13349;SDS011;6744;53.190;6.576;2024-01-30T11:20:58;8.50;;;7.60;;
13349;SDS011;6744;53.190;6.576;2024-01-30T11:23:26;8.30;;;6.97;;
13349;SDS011;6744;53.190;6.576;2024-01-30T11:25:52;10.47;;;7.90;;
13349;SDS011;6744;53.190;6.576;2024-01-30T11:28:18;9.00;;;7.17;;
13349;SDS011;6744;53.190;6.576;2024-01-30T11:30:44;8.83;;;7.87;;
13349;SDS011;6744;53.190;6.576;2024-01-30T11:35:37;9.50;;;7.70;;
13349;SDS011;6744;53.190;6.576;2024-01-30T11:38:04;9.63;;;6.40;;
13349;SDS011;6744;53.190;6.576;2024-01-30T11:40:31;11.00;;;6.20;;
13349;SDS011;6744;53.190;6.576;2024-01-30T11:42:58;7.73;;;5.37;;
13349;SDS011;6744;53.190;6.576;2024-01-30T11:45:26;7.77;;;5.07;;
13349;SDS011;6744;53.190;6.576;2024-01-30T11:47:54;6.63;;;4.30;;
13349;SDS011;6744;53.190;6.576;2024-01-30T11:50:20;6.83;;;4.57;;
13349;SDS011;6744;53.190;6.576;2024-01-30T11:52:47;7.93;;;4.47;;
13349;SDS011;6744;53.190;6.576;2024-01-30T11:55:13;6.77;;;4.30;;
13349;SDS011;6744;53.190;6.576;2024-01-30T11:57:39;7.53;;;4.43;;
13349;SDS011;6744;53.190;6.576;2024-01-30T12:00:05;5.70;;;3.83;;
13349;SDS011;6744;53.190;6.576;2024-01-30T12:02:38;4.67;;;2.70;;
13349;SDS011;6744;53.190;6.576;2024-01-30T12:05:04;3.43;;;1.87;;
13349;SDS011;6744;53.190;6.576;2024-01-30T12:07:34;3.23;;;1.83;;
13349;SDS011;6744;53.190;6.576;2024-01-30T12:10:00;3.90;;;1.90;;
13349;SDS011;6744;53.190;6.576;2024-01-30T12:12:26;2.37;;;1.50;;
13349;SDS011;6744;53.190;6.576;2024-01-30T12:14:52;2.97;;;1.43;;
13349;SDS011;6744;53.190;6.576;2024-01-30T12:17:31;4.33;;;1.47;;
13349;SDS011;6744;53.190;6.576;2024-01-30T12:20:04;4.30;;;1.30;;
13349;SDS011;6744;53.190;6.576;2024-01-30T12:22:31;2.07;;;1.50;;
13349;SDS011;6744;53.190;6.576;2024-01-30T12:25:10;2.23;;;1.30;;
13349;SDS011;6744;53.190;6.576;2024-01-30T12:27:36;2.87;;;1.10;;
13349;SDS011;6744;53.190;6.576;2024-01-30T12:30:09;2.70;;;0.90;;
13349;SDS011;6744;53.190;6.576;2024-01-30T12:32:35;2.57;;;1.00;;
13349;SDS011;6744;53.190;6.576;2024-01-30T12:35:01;1.57;;;0.73;;
13349;SDS011;6744;53.190;6.576;2024-01-30T12:37:27;2.57;;;0.70;;
13349;SDS011;6744;53.190;6.576;2024-01-30T12:39:54;2.30;;;0.60;;
13349;SDS011;6744;53.190;6.576;2024-01-30T12:42:20;1.90;;;0.80;;
13349;SDS011;6744;53.190;6.576;2024-01-30T12:44:49;1.43;;;0.60;;
13349;SDS011;6744;53.190;6.576;2024-01-30T12:47:14;1.83;;;0.60;;
13349;SDS011;6744;53.190;6.576;2024-01-30T12:49:43;1.07;;;0.50;;
13349;SDS011;6744;53.190;6.576;2024-01-30T12:52:09;2.47;;;0.60;;
13349;SDS011;6744;53.190;6.576;2024-01-30T12:54:36;1.40;;;0.60;;
13349;SDS011;6744;53.190;6.576;2024-01-30T12:57:01;1.83;;;0.63;;
13349;SDS011;6744;53.190;6.576;2024-01-30T12:59:27;1.53;;;0.50;;
13349;SDS011;6744;53.190;6.576;2024-01-30T13:01:52;1.33;;;0.60;;
13349;SDS011;6744;53.190;6.576;2024-01-30T13:04:17;1.37;;;0.50;;
13349;SDS011;6744;53.190;6.576;2024-01-30T13:06:43;1.20;;;0.70;;
13349;SDS011;6744;53.190;6.576;2024-01-30T13:09:08;3.23;;;0.60;;
13349;SDS011;6744;53.190;6.576;2024-01-30T13:11:34;0.83;;;0.40;;
13349;SDS011;6744;53.190;6.576;2024-01-30T13:14:00;1.63;;;0.60;;
13349;SDS011;6744;53.190;6.576;2024-01-30T13:16:25;0.70;;;0.40;;
13349;SDS011;6744;53.190;6.576;2024-01-30T13:18:51;1.27;;;0.63;;
13349;SDS011;6744;53.190;6.576;2024-01-30T13:21:16;1.70;;;0.50;;
13349;SDS011;6744;53.190;6.576;2024-01-30T13:23:42;1.67;;;0.60;;
13349;SDS011;6744;53.190;6.576;2024-01-30T13:26:08;1.30;;;0.70;;
13349;SDS011;6744;53.190;6.576;2024-01-30T13:28:33;1.27;;;0.60;;
13349;SDS011;6744;53.190;6.576;2024-01-30T13:30:59;1.53;;;0.50;;
13349;SDS011;6744;53.190;6.576;2024-01-30T13:33:24;1.00;;;0.50;;
13349;SDS011;6744;53.190;6.576;2024-01-30T13:35:50;0.90;;;0.50;;
13349;SDS011;6744;53.190;6.576;2024-01-30T13:38:15;1.17;;;0.50;;
13349;SDS011;6744;53.190;6.576;2024-01-30T13:40:41;0.73;;;0.50;;
13349;SDS011;6744;53.190;6.576;2024-01-30T13:43:06;1.40;;;0.50;;
13349;SDS011;6744;53.190;6.576;2024-01-30T13:45:31;2.17;;;0.60;;
13349;SDS011;6744;53.190;6.576;2024-01-30T13:47:57;1.47;;;0.40;;
13349;SDS011;6744;53.190;6.576;2024-01-30T13:50:24;1.77;;;0.60;;
13349;SDS011;6744;53.190;6.576;2024-01-30T13:52:49;1.53;;;0.50;;
13349;SDS011;6744;53.190;6.576;2024-01-30T13:55:15;2.00;;;0.50;;
13349;SDS011;6744;53.190;6.576;2024-01-30T13:57:40;0.70;;;0.30;;
13349;SDS011;6744;53.190;6.576;2024-01-30T14:00:06;1.30;;;0.40;;
13349;SDS011;6744;53.190;6.576;2024-01-30T14:02:38;1.43;;;0.50;;
13349;SDS011;6744;53.190;6.576;2024-01-30T14:05:04;0.87;;;0.50;;
13349;SDS011;6744;53.190;6.576;2024-01-30T14:07:29;1.77;;;0.60;;
13349;SDS011;6744;53.190;6.576;2024-01-30T14:09:55;1.13;;;0.50;;
13349;SDS011;6744;53.190;6.576;2024-01-30T14:12:21;1.87;;;0.60;;
13349;SDS011;6744;53.190;6.576;2024-01-30T14:14:47;0.83;;;0.47;;
13349;SDS011;6744;53.190;6.576;2024-01-30T14:17:12;1.50;;;0.40;;
13349;SDS011;6744;53.190;6.576;2024-01-30T14:19:37;1.07;;;0.60;;
13349;SDS011;6744;53.190;6.576;2024-01-30T14:22:03;1.07;;;0.60;;
13349;SDS011;6744;53.190;6.576;2024-01-30T14:24:28;1.50;;;0.70;;
13349;SDS011;6744;53.190;6.576;2024-01-30T14:26:54;2.43;;;0.60;;
13349;SDS011;6744;53.190;6.576;2024-01-30T14:29:20;1.70;;;0.50;;
13349;SDS011;6744;53.190;6.576;2024-01-30T14:31:45;1.13;;;0.60;;
13349;SDS011;6744;53.190;6.576;2024-01-30T14:34:10;1.70;;;0.73;;
13349;SDS011;6744;53.190;6.576;2024-01-30T14:36:39;1.70;;;0.80;;
13349;SDS011;6744;53.190;6.576;2024-01-30T14:39:04;1.37;;;0.80;;
13349;SDS011;6744;53.190;6.576;2024-01-30T14:41:32;2.13;;;0.97;;
13349;SDS011;6744;53.190;6.576;2024-01-30T14:43:57;2.30;;;1.17;;